Thatcher, Colorado
Current Conditions -  °F | °C
As of 1:54 AM on Monday 24 Nov 2014 (Local Time) from KTAD Reporting Station
Clear Clear  
Wind Chill:   Ceiling: Unl
Heat Index: 19°   Visibility: 10mi
Dew Point: 12°   Wind: 10mph
Humidity: 74%   Direction: 280°W
Pressure: 29.93"   Gusts: NA
Location:  37.5307°N, 104.063°W
Report Text: KTAD 240854Z AUTO 28009KT 10SM CLR M07/M11 A2993 RMK AO2 SLP159 I3001 T10721111 56004
Loading
Personal Weather Stations






























Interactive Weather Map New forecast layout! Learn more

10-Day Weather Forecast

Advertisements
Track Severe Weather on mobile